createdAt,value
2023-01-10T00:01:00.332Z,97845.46
2023-01-10T00:07:32.729Z,97848.80
2023-01-10T00:10:48.824Z,97853.73
2023-01-10T00:14:05.205Z,97860.64
2023-01-10T00:17:21.871Z,97853.45
2023-01-10T00:20:43.401Z,97851.95
2023-01-10T00:24:01.070Z,97853.27
2023-01-10T00:27:22.554Z,97865.44
2023-01-10T00:30:38.895Z,97865.13
2023-01-10T00:37:10.880Z,97873.86
2023-01-10T00:40:27.409Z,97875.31
2023-01-10T00:44:02.207Z,97879.78
2023-01-10T00:47:19.523Z,97892.33
2023-01-10T00:50:35.626Z,97884.32
2023-01-10T00:53:52.039Z,97892.69
2023-01-10T00:57:08.420Z,97891.05
2023-01-10T01:00:24.844Z,97902.23
2023-01-10T01:07:10.110Z,97909.33
2023-01-10T01:10:33.792Z,97903.73
2023-01-10T01:13:52.717Z,97910.14
2023-01-10T01:17:08.869Z,97908.19
2023-01-10T01:23:43.063Z,97907.87
2023-01-10T01:26:59.640Z,97906.22
2023-01-10T01:30:19.611Z,97906.22
2023-01-10T01:33:35.812Z,97907.20
2023-01-10T01:36:52.339Z,97913.94
2023-01-10T01:40:09.649Z,97920.55
2023-01-10T01:43:35.153Z,97911.19
2023-01-10T01:46:55.715Z,97913.82
2023-01-10T01:50:15.247Z,97912.17
2023-01-10T01:53:35.869Z,97915.80
2023-01-10T01:56:56.867Z,97918.94
2023-01-10T02:00:17.674Z,97922.55
2023-01-10T02:06:51.620Z,97929.82
2023-01-10T02:10:12.808Z,97926.53
2023-01-10T02:13:33.600Z,97923.72
2023-01-10T02:16:49.935Z,97933.46
2023-01-10T02:24:03.180Z,97926.05
2023-01-10T02:27:32.849Z,97934.68
2023-01-10T02:31:12.062Z,97938.24
2023-01-10T02:34:33.331Z,97946.49
2023-01-10T02:37:59.344Z,97944.49
2023-01-10T02:41:22.428Z,97941.53
2023-01-10T02:44:44.721Z,97955.83
2023-01-10T02:48:03.824Z,97957.32
2023-01-10T02:52:05.556Z,97961.91
2023-01-10T02:55:21.949Z,97961.59
2023-01-10T02:58:48.697Z,97955.85
2023-01-10T03:02:09.289Z,97968.34
2023-01-10T03:05:32.719Z,97968.70
2023-01-10T03:08:54.890Z,97966.92
2023-01-10T03:12:15.851Z,97974.28
2023-01-10T03:15:36.061Z,97980.53
2023-01-10T03:25:28.652Z,97987.44
2023-01-10T03:28:50.076Z,97993.86
2023-01-10T03:32:10.516Z,97997.47
2023-01-10T03:35:29.367Z,98002.06
2023-01-10T03:38:50.655Z,98004.69
2023-01-10T03:42:13.371Z,98011.29
2023-01-10T03:45:34.595Z,98014.41
2023-01-10T03:52:08.535Z,98037.45
2023-01-10T03:55:30.057Z,98027.25
2023-01-10T03:58:46.218Z,98044.19
2023-01-10T04:02:03.535Z,98046.47
2023-01-10T04:08:36.203Z,98057.34
2023-01-10T04:11:52.236Z,98063.76
2023-01-10T04:15:08.428Z,98067.55
2023-01-10T04:18:24.779Z,98067.20
2023-01-10T04:24:56.875Z,98073.47
2023-01-10T04:28:15.892Z,98077.89
2023-01-10T04:31:32.311Z,98076.76
2023-01-10T04:38:03.932Z,98088.23
2023-01-10T04:41:20.119Z,98094.02
2023-01-10T04:44:36.222Z,98107.47
2023-01-10T04:47:57.021Z,98102.73
2023-01-10T04:54:31.122Z,98121.77
2023-01-10T04:57:47.322Z,98124.08
2023-01-10T05:01:03.809Z,98123.27
2023-01-10T05:04:21.087Z,98130.31
2023-01-10T05:07:37.135Z,98134.28
2023-01-10T05:10:53.318Z,98155.63
2023-01-10T05:14:10.235Z,98162.04
2023-01-10T05:17:26.425Z,98163.66
2023-01-10T05:20:42.721Z,98167.44
2023-01-10T05:23:59.995Z,98170.41
2023-01-10T05:27:16.523Z,98178.77
2023-01-10T05:30:33.225Z,98174.02
2023-01-10T05:33:51.969Z,98175.64
2023-01-10T05:37:08.473Z,98184.20
2023-01-10T05:40:24.963Z,98189.92
2023-01-10T05:43:41.310Z,98204.86
2023-01-10T05:46:57.468Z,98206.67
2023-01-10T05:53:29.345Z,98215.36
2023-01-10T05:56:45.547Z,98223.75
2023-01-10T06:00:02.755Z,98225.03
2023-01-10T06:03:21.632Z,98228.50
2023-01-10T06:06:37.948Z,98231.80
2023-01-10T06:09:54.074Z,98233.09
2023-01-10T06:13:10.582Z,98245.25
2023-01-10T06:16:26.814Z,98249.99
2023-01-10T06:19:53.126Z,98257.70
2023-01-10T06:23:09.336Z,98260.32
2023-01-10T06:26:25.796Z,98265.41
2023-01-10T06:29:42.332Z,98279.17
2023-01-10T06:32:59.053Z,98283.56
2023-01-10T06:36:17.473Z,98296.70
2023-01-10T06:39:33.811Z,98310.16
2023-01-10T06:42:50.586Z,98311.13
2023-01-10T06:46:07.101Z,98312.47
2023-01-10T06:49:23.228Z,98320.67
2023-01-10T06:52:39.480Z,98324.27
2023-01-10T06:55:55.521Z,98320.28
2023-01-10T06:59:11.699Z,98321.91
2023-01-10T07:02:27.775Z,98324.66
2023-01-10T07:05:45.501Z,98319.77
2023-01-10T07:09:02.541Z,98328.33
2023-01-10T07:12:18.969Z,98327.80
2023-01-10T07:15:35.545Z,98327.97
2023-01-10T07:18:52.639Z,98329.35
2023-01-10T07:22:08.689Z,98342.68
2023-01-10T07:25:25.069Z,98350.04
2023-01-10T07:28:41.384Z,98362.97
2023-01-10T07:31:57.619Z,98365.38
2023-01-10T07:38:29.258Z,98360.73
2023-01-10T07:41:45.373Z,98365.52
2023-01-10T07:45:04.503Z,98359.21
2023-01-10T07:48:20.601Z,98368.61
2023-01-10T07:54:52.088Z,98369.58
2023-01-10T07:58:08.667Z,98364.33
2023-01-10T08:01:25.785Z,98365.83
2023-01-10T08:04:43.256Z,98376.98
2023-01-10T08:08:01.171Z,98385.09
2023-01-10T08:11:17.779Z,98383.59
2023-01-10T08:14:34.463Z,98390.50
2023-01-10T08:17:50.750Z,98403.34
2023-01-10T08:21:08.796Z,98404.36
2023-01-10T08:24:25.039Z,98404.08
2023-01-10T08:27:41.322Z,98410.67
2023-01-10T08:30:58.583Z,98415.92
2023-01-10T08:34:14.903Z,98417.58
2023-01-10T08:37:31.141Z,98422.23
2023-01-10T08:40:47.735Z,98431.30
2023-01-10T08:44:05.711Z,98430.33
2023-01-10T08:47:22.170Z,98431.75
2023-01-10T08:53:54.398Z,98457.87
2023-01-10T08:57:10.944Z,98455.00
2023-01-10T09:00:29.478Z,98469.24
2023-01-10T09:03:45.705Z,98475.46
2023-01-10T09:10:19.526Z,98480.97
2023-01-10T09:13:35.862Z,98487.13
2023-01-10T09:16:52.442Z,98490.03
2023-01-10T09:20:10.914Z,98492.44
2023-01-10T09:23:30.468Z,98492.91
2023-01-10T09:26:47.001Z,98494.53
2023-01-10T09:30:03.436Z,98492.75
2023-01-10T09:33:20.653Z,98498.22
2023-01-10T09:36:37.992Z,98501.01
2023-01-10T09:39:54.481Z,98498.47
2023-01-10T09:43:21.209Z,98495.91
2023-01-10T09:46:45.700Z,98496.96
2023-01-10T09:50:11.793Z,98507.19
2023-01-10T09:53:31.371Z,98505.97
2023-01-10T09:56:48.359Z,98515.14
2023-01-10T10:00:05.825Z,98514.01
2023-01-10T10:03:36.225Z,98517.70
2023-01-10T10:06:55.283Z,98527.27
2023-01-10T10:10:13.897Z,98535.24
2023-01-10T10:13:38.063Z,98533.27
2023-01-10T10:17:06.347Z,98536.59
2023-01-10T10:20:34.523Z,98537.78
2023-01-10T10:24:24.114Z,98537.34
2023-01-10T10:27:49.236Z,98548.38
2023-01-10T10:31:15.735Z,98545.59
2023-01-10T10:34:37.477Z,98552.34
2023-01-10T10:41:10.589Z,98554.70
2023-01-10T10:44:41.004Z,98548.59
2023-01-10T10:48:01.580Z,98571.58
2023-01-10T10:54:33.496Z,98568.52
2023-01-10T10:57:59.947Z,98574.59
2023-01-10T11:01:10.838Z,98575.87
2023-01-10T11:04:31.110Z,98588.53
2023-01-10T11:07:48.427Z,98588.94
2023-01-10T11:11:08.499Z,98594.70
2023-01-10T11:14:40.920Z,98598.17
2023-01-10T11:18:08.394Z,98602.73
2023-01-10T11:21:26.548Z,98608.96
2023-01-10T11:24:47.577Z,98615.81
2023-01-10T11:28:06.990Z,98616.25
2023-01-10T11:31:33.093Z,98629.97
2023-01-10T11:34:54.856Z,98636.30
2023-01-10T11:38:15.232Z,98627.41
2023-01-10T11:41:36.923Z,98637.70
2023-01-10T11:44:53.247Z,98642.77
2023-01-10T11:48:34.239Z,98662.62
2023-01-10T11:51:44.318Z,98671.04
2023-01-10T11:55:01.183Z,98659.84
2023-01-10T11:58:20.396Z,98662.31
2023-01-10T12:01:43.257Z,98667.44
2023-01-10T12:05:02.884Z,98672.01
2023-01-10T12:08:31.012Z,98680.58
2023-01-10T12:11:48.509Z,98687.23
2023-01-10T12:15:07.924Z,98686.69
2023-01-10T12:18:25.568Z,98702.88
2023-01-10T12:21:50.449Z,98713.38
2023-01-10T12:25:08.435Z,98716.55
2023-01-10T12:28:31.260Z,98720.84
2023-01-10T12:31:49.371Z,98735.78
2023-01-10T12:35:12.466Z,98736.59
2023-01-10T12:42:05.514Z,98737.69
2023-01-10T12:45:29.106Z,98743.63
2023-01-10T12:48:57.997Z,98738.22
2023-01-10T12:52:18.466Z,98744.45
2023-01-10T12:55:39.114Z,98740.58
2023-01-10T12:59:00.707Z,98744.30
2023-01-10T13:02:22.370Z,98749.40
2023-01-10T13:05:39.966Z,98747.77
2023-01-10T13:08:59.069Z,98757.82
2023-01-10T13:12:21.684Z,98766.98
2023-01-10T13:15:42.681Z,98765.59
2023-01-10T13:19:28.744Z,98779.81
2023-01-10T13:22:45.965Z,98784.80
2023-01-10T13:26:09.810Z,98788.11
2023-01-10T13:29:30.456Z,98798.75
2023-01-10T13:32:48.483Z,98808.86
2023-01-10T13:36:14.324Z,98807.08
2023-01-10T13:39:37.496Z,98808.44
2023-01-10T13:43:22.457Z,98804.55
2023-01-10T13:46:57.938Z,98814.78
2023-01-10T13:50:56.997Z,98813.27
2023-01-10T13:54:34.389Z,98810.64
2023-01-10T13:58:10.117Z,98818.38
2023-01-10T14:01:52.365Z,98824.48
2023-01-10T14:05:11.832Z,98836.23
2023-01-10T14:08:31.457Z,98834.42
2023-01-10T14:12:00.514Z,98830.83
2023-01-10T14:15:33.467Z,98828.08
2023-01-10T14:18:51.556Z,98834.15
2023-01-10T14:22:10.533Z,98848.42
2023-01-10T14:25:30.869Z,98845.65
2023-01-10T14:28:49.237Z,98849.52
2023-01-10T14:32:07.522Z,98848.80
2023-01-10T14:35:29.883Z,98848.38
2023-01-10T14:38:48.725Z,98849.73
2023-01-10T14:42:09.726Z,98847.50
2023-01-10T14:45:37.926Z,98851.09
2023-01-10T14:49:00.625Z,98851.09
2023-01-10T14:52:27.736Z,98852.09
2023-01-10T14:55:49.448Z,98852.91
2023-01-10T14:59:09.246Z,98858.89
2023-01-10T15:02:32.084Z,98856.27
2023-01-10T15:05:55.942Z,98856.53
2023-01-10T15:09:13.916Z,98854.48
2023-01-10T15:12:33.561Z,98860.70
2023-01-10T15:15:51.613Z,98863.33
2023-01-10T15:19:09.541Z,98865.53
2023-01-10T15:22:36.071Z,98861.94
2023-01-10T15:26:02.043Z,98862.36
2023-01-10T15:29:25.529Z,98876.47
2023-01-10T15:32:46.147Z,98878.82
2023-01-10T15:36:03.469Z,98880.91
2023-01-10T15:39:31.796Z,98890.17
2023-01-10T15:42:48.140Z,98901.67
2023-01-10T15:46:06.710Z,98898.90
2023-01-10T15:49:33.518Z,98903.45
2023-01-10T15:56:15.730Z,98914.37
2023-01-10T15:59:36.448Z,98922.69
2023-01-10T16:02:53.201Z,98925.02
2023-01-10T16:06:13.352Z,98931.94
2023-01-10T16:13:34.054Z,98937.34
2023-01-10T16:16:50.397Z,98941.49
2023-01-10T16:20:07.203Z,98937.90
2023-01-10T16:23:28.130Z,98942.71
2023-01-10T16:26:45.115Z,98957.11
2023-01-10T16:30:01.883Z,98956.69
2023-01-10T16:33:25.281Z,98964.84
2023-01-10T16:36:42.088Z,98971.50
2023-01-10T16:39:59.840Z,98976.62
2023-01-10T16:43:23.819Z,98990.31
2023-01-10T16:46:41.006Z,98997.23
2023-01-10T16:49:58.639Z,99004.27
2023-01-10T16:53:17.137Z,99006.89
2023-01-10T16:56:35.255Z,99007.19
2023-01-10T17:00:00.570Z,99014.10
2023-01-10T17:03:24.420Z,99016.03
2023-01-10T17:10:02.986Z,99024.61
2023-01-10T17:13:20.221Z,99015.21
2023-01-10T17:16:37.550Z,99026.14
2023-01-10T17:20:06.865Z,99025.73
2023-01-10T17:23:24.618Z,99036.09
2023-01-10T17:26:40.907Z,99034.98
2023-01-10T17:30:00.349Z,99037.05
2023-01-10T17:33:17.243Z,99045.78
2023-01-10T17:36:38.062Z,99050.45
2023-01-10T17:39:55.248Z,99058.08
2023-01-10T17:43:13.514Z,99068.59
2023-01-10T17:46:30.825Z,99066.78
2023-01-10T17:49:47.808Z,99059.19
2023-01-10T17:53:04.269Z,99064.59
2023-01-10T17:56:21.383Z,99071.92
2023-01-10T17:59:38.470Z,99079.81
2023-01-10T18:02:57.185Z,99084.62
2023-01-10T18:06:23.820Z,99089.77
2023-01-10T18:09:36.444Z,99077.73
2023-01-10T18:12:54.034Z,99077.03
2023-01-10T18:16:12.381Z,99078.81
2023-01-10T18:19:30.665Z,99086.44
2023-01-10T18:23:00.523Z,99081.05
2023-01-10T18:26:22.210Z,99079.11
2023-01-10T18:29:40.355Z,99084.93
2023-01-10T18:32:59.111Z,99087.00
2023-01-10T18:36:21.079Z,99085.89
2023-01-10T18:39:39.438Z,99091.97
2023-01-10T18:42:59.852Z,99083.67
2023-01-10T18:46:19.126Z,99091.70
2023-01-10T18:49:36.030Z,99088.52
2023-01-10T18:52:55.295Z,99091.00
2023-01-10T18:56:15.567Z,99093.91
2023-01-10T18:59:31.654Z,99101.09
2023-01-10T19:02:48.748Z,99111.89
2023-01-10T19:06:11.311Z,99103.59
2023-01-10T19:09:29.373Z,99109.66
2023-01-10T19:12:45.596Z,99105.91
2023-01-10T19:16:14.727Z,99115.59
2023-01-10T19:19:31.036Z,99119.60
2023-01-10T19:22:48.744Z,99127.77
2023-01-10T19:26:06.728Z,99111.02
2023-01-10T19:29:24.280Z,99111.72
2023-01-10T19:32:43.441Z,99117.80
2023-01-10T19:35:59.831Z,99123.34
2023-01-10T19:42:31.954Z,99126.92
2023-01-10T19:45:52.240Z,99128.45
2023-01-10T19:49:09.294Z,99136.08
2023-01-10T19:52:25.498Z,99130.11
2023-01-10T19:55:41.732Z,99129.16
2023-01-10T19:58:59.013Z,99134.27
2023-01-10T20:02:19.835Z,99130.11
2023-01-10T20:05:37.120Z,99139.13
2023-01-10T20:08:54.981Z,99146.05
2023-01-10T20:12:13.721Z,99143.84
2023-01-10T20:15:30.076Z,99156.58
2023-01-10T20:18:47.003Z,99151.05
2023-01-10T20:22:03.709Z,99154.77
2023-01-10T20:25:20.446Z,99158.36
2023-01-10T20:28:39.684Z,99153.65
2023-01-10T20:31:56.417Z,99160.99
2023-01-10T20:35:14.786Z,99156.02
2023-01-10T20:41:50.543Z,99161.70
2023-01-10T20:45:07.487Z,99168.73
2023-01-10T20:48:26.243Z,99170.26
2023-01-10T20:51:43.274Z,99170.14
2023-01-10T20:54:59.494Z,99176.93
2023-01-10T20:58:16.274Z,99176.78
2023-01-10T21:01:35.695Z,99174.72
2023-01-10T21:04:52.267Z,99183.98
2023-01-10T21:08:08.533Z,99182.75
2023-01-10T21:11:27.472Z,99188.01
2023-01-10T21:14:43.745Z,99190.18
2023-01-10T21:17:59.941Z,99198.78
2023-01-10T21:21:16.868Z,99188.80
2023-01-10T21:24:34.064Z,99190.86
2023-01-10T21:27:50.370Z,99195.55
2023-01-10T21:31:06.702Z,99194.73
2023-01-10T21:34:23.384Z,99203.19
2023-01-10T21:37:39.537Z,99203.05
2023-01-10T21:40:55.846Z,99196.01
2023-01-10T21:44:13.430Z,99196.41
2023-01-10T21:47:29.832Z,99203.44
2023-01-10T21:50:47.243Z,99201.27
2023-01-10T21:54:03.572Z,99201.38
2023-01-10T21:57:21.828Z,99199.03
2023-01-10T22:00:38.152Z,99198.60
2023-01-10T22:03:55.948Z,99199.70
2023-01-10T22:07:12.179Z,99202.44
2023-01-10T22:13:48.000Z,99196.94
2023-01-10T22:17:04.156Z,99190.30
2023-01-10T22:20:21.875Z,99196.83
2023-01-10T22:23:39.233Z,99202.33
2023-01-10T22:26:58.265Z,99201.52
2023-01-10T22:30:17.871Z,99207.34
2023-01-10T22:33:36.869Z,99214.94
2023-01-10T22:36:52.825Z,99204.57
2023-01-10T22:40:08.997Z,99206.63
2023-01-10T22:43:24.960Z,99209.97
2023-01-10T22:46:41.484Z,99206.38
2023-01-10T22:49:57.597Z,99205.81
2023-01-10T22:53:13.778Z,99200.41
2023-01-10T22:56:30.351Z,99212.31
2023-01-10T22:59:51.043Z,99214.83
2023-01-10T23:03:07.257Z,99204.88
2023-01-10T23:06:25.270Z,99209.69
2023-01-10T23:09:41.438Z,99211.21
2023-01-10T23:12:58.584Z,99218.95
2023-01-10T23:16:19.203Z,99218.53
2023-01-10T23:19:35.832Z,99207.59
2023-01-10T23:22:53.653Z,99197.50
2023-01-10T23:26:14.208Z,99211.42
2023-01-10T23:29:30.453Z,99218.34
2023-01-10T23:32:46.855Z,99214.33
2023-01-10T23:36:03.071Z,99219.73
2023-01-10T23:39:22.507Z,99209.75
2023-01-10T23:42:36.371Z,99217.30
2023-01-10T23:45:55.524Z,99224.36
2023-01-10T23:49:11.732Z,99214.38
2023-01-10T23:52:27.834Z,99206.64
2023-01-10T23:59:03.471Z,99196.52
